createdAt,value
2018-04-19T00:01:49.309Z,49.10
2018-04-19T00:04:16.838Z,49.50
2018-04-19T00:06:44.358Z,49.40
2018-04-19T00:09:12.690Z,49.70
2018-04-19T00:11:40.216Z,49.70
2018-04-19T00:14:07.711Z,49.80
2018-04-19T00:16:35.232Z,49.90
2018-04-19T00:19:02.770Z,49.90
2018-04-19T00:21:31.050Z,50.10
2018-04-19T00:23:59.348Z,50.10
2018-04-19T00:26:26.858Z,50.00
2018-04-19T00:28:54.368Z,50.10
2018-04-19T00:31:21.862Z,50.10
2018-04-19T00:33:49.412Z,50.30
2018-04-19T00:36:16.915Z,50.30
2018-04-19T00:38:45.215Z,50.50
2018-04-19T00:41:12.738Z,50.50
2018-04-19T00:43:41.054Z,50.50
2018-04-19T00:46:08.547Z,50.50
2018-04-19T00:48:36.068Z,50.50
2018-04-19T00:51:03.564Z,50.60
2018-04-19T00:53:31.099Z,51.00
2018-04-19T00:55:58.609Z,50.90
2018-04-19T00:58:26.149Z,51.00
2018-04-19T01:00:53.645Z,51.00
2018-04-19T01:03:21.173Z,51.40
2018-04-19T01:05:49.464Z,51.40
2018-04-19T01:08:17.738Z,51.90
2018-04-19T01:10:46.035Z,51.90
2018-04-19T01:13:13.574Z,51.90
2018-04-19T01:15:41.922Z,52.50
2018-04-19T01:18:09.422Z,52.50
2018-04-19T01:20:36.956Z,52.50
2018-04-19T01:23:05.222Z,53.00
2018-04-19T01:25:32.751Z,52.90
2018-04-19T01:28:00.256Z,53.10
2018-04-19T01:30:27.774Z,53.10
2018-04-19T01:32:55.274Z,53.10
2018-04-19T01:35:34.679Z,53.20
2018-04-19T01:38:02.187Z,53.50
2018-04-19T01:40:29.719Z,53.50
2018-04-19T01:42:57.975Z,53.90
2018-04-19T01:45:25.535Z,53.90
2018-04-19T01:47:53.036Z,54.00
2018-04-19T01:50:20.584Z,54.10
2018-04-19T01:52:48.107Z,54.10
2018-04-19T01:55:15.610Z,54.20
2018-04-19T01:57:43.145Z,54.00
2018-04-19T02:00:10.661Z,54.00
2018-04-19T02:02:38.189Z,54.00
2018-04-19T02:05:05.697Z,54.30
2018-04-19T02:07:33.979Z,54.60
2018-04-19T02:10:02.283Z,54.40
2018-04-19T02:12:29.793Z,54.40
2018-04-19T02:14:57.318Z,54.40
2018-04-19T02:17:24.832Z,54.40
2018-04-19T02:19:53.118Z,54.40
2018-04-19T02:22:21.379Z,54.40
2018-04-19T02:24:49.689Z,54.30
2018-04-19T02:27:17.214Z,54.20
2018-04-19T02:29:45.519Z,55.00
2018-04-19T02:32:13.020Z,54.30
2018-04-19T02:34:40.566Z,54.30
2018-04-19T02:37:08.076Z,54.20
2018-04-19T02:39:36.343Z,54.40
2018-04-19T02:42:04.701Z,54.30
2018-04-19T02:44:32.228Z,54.30
2018-04-19T02:46:59.751Z,54.60
2018-04-19T02:49:27.258Z,54.10
2018-04-19T02:51:54.799Z,54.10
2018-04-19T02:54:22.303Z,54.10
2018-04-19T02:56:50.609Z,54.20
2018-04-19T02:59:18.104Z,54.10
2018-04-19T03:01:45.639Z,54.20
2018-04-19T03:04:13.170Z,54.50
2018-04-19T03:06:40.708Z,54.80
2018-04-19T03:09:08.978Z,55.10
2018-04-19T03:11:37.271Z,55.30
2018-04-19T03:14:04.819Z,55.30
2018-04-19T03:16:33.123Z,55.50
2018-04-19T03:19:00.636Z,55.50
2018-04-19T03:21:28.138Z,55.40
2018-04-19T03:23:55.667Z,55.40
2018-04-19T03:26:23.941Z,55.40
2018-04-19T03:28:52.218Z,55.40
2018-04-19T03:31:20.660Z,55.40
2018-04-19T03:33:48.181Z,55.30
2018-04-19T03:36:15.679Z,55.40
2018-04-19T03:38:43.200Z,55.50
2018-04-19T03:41:10.711Z,55.50
2018-04-19T03:43:38.258Z,55.60
2018-04-19T03:46:05.773Z,55.40
2018-04-19T03:48:33.306Z,55.40
2018-04-19T03:51:01.589Z,55.50
2018-04-19T03:53:29.106Z,55.50
2018-04-19T03:55:56.643Z,55.70
2018-04-19T03:58:24.153Z,55.90
2018-04-19T04:00:52.435Z,56.00
2018-04-19T04:03:20.025Z,55.90
2018-04-19T04:05:47.541Z,55.80
2018-04-19T04:08:15.834Z,55.70
2018-04-19T04:10:43.369Z,55.70
2018-04-19T04:13:10.890Z,55.30
2018-04-19T04:15:38.444Z,55.60
2018-04-19T04:18:17.759Z,55.90
2018-04-19T04:20:57.316Z,56.30
2018-04-19T04:23:50.874Z,56.70
2018-04-19T04:26:18.506Z,57.60
2018-04-19T04:28:46.014Z,57.10
2018-04-19T04:31:13.656Z,57.10
2018-04-19T04:33:41.932Z,56.60
2018-04-19T04:36:09.438Z,56.60
2018-04-19T04:38:37.740Z,56.70
2018-04-19T04:41:05.279Z,56.70
2018-04-19T04:43:33.603Z,57.00
2018-04-19T04:46:01.125Z,56.90
2018-04-19T04:48:28.636Z,57.10
2018-04-19T04:50:56.159Z,57.40
2018-04-19T04:53:23.659Z,57.30
2018-04-19T04:55:51.155Z,57.30
2018-04-19T04:58:18.710Z,57.60
2018-04-19T05:00:46.230Z,57.20
2018-04-19T05:03:13.799Z,57.00
2018-04-19T05:05:41.322Z,56.80
2018-04-19T05:08:08.872Z,56.70
2018-04-19T05:10:36.445Z,56.80
2018-04-19T05:13:03.975Z,56.90
2018-04-19T05:15:31.482Z,57.00
2018-04-19T05:17:59.002Z,57.10
2018-04-19T05:20:26.571Z,57.20
2018-04-19T05:22:54.066Z,57.30
2018-04-19T05:25:22.343Z,57.70
2018-04-19T05:27:50.641Z,58.00
2018-04-19T05:30:18.158Z,57.90
2018-04-19T05:32:45.662Z,57.70
2018-04-19T05:35:13.190Z,57.90
2018-04-19T05:37:40.697Z,57.80
2018-04-19T05:40:08.277Z,57.70
2018-04-19T05:42:35.808Z,57.80
2018-04-19T05:45:03.350Z,57.80
2018-04-19T05:47:30.871Z,57.90
2018-04-19T05:49:58.395Z,58.50
2018-04-19T05:52:25.920Z,58.40
2018-04-19T05:54:53.451Z,58.30
2018-04-19T05:57:21.734Z,58.90
2018-04-19T05:59:50.039Z,58.10
2018-04-19T06:02:17.546Z,58.10
2018-04-19T06:04:45.077Z,58.20
2018-04-19T06:07:12.588Z,58.00
2018-04-19T06:09:40.854Z,58.90
2018-04-19T06:12:09.143Z,58.90
2018-04-19T06:14:37.403Z,59.10
2018-04-19T06:17:05.690Z,59.30
2018-04-19T06:19:33.971Z,59.60
2018-04-19T06:22:01.510Z,59.60
2018-04-19T06:24:29.790Z,59.30
2018-04-19T06:26:58.079Z,59.30
2018-04-19T06:29:25.597Z,59.30
2018-04-19T06:31:53.140Z,59.50
2018-04-19T06:34:20.672Z,59.40
2018-04-19T06:36:48.215Z,59.40
2018-04-19T06:39:15.728Z,59.40
2018-04-19T06:41:43.248Z,59.20
2018-04-19T06:44:10.777Z,58.90
2018-04-19T06:46:39.066Z,58.80
2018-04-19T06:49:06.566Z,58.70
2018-04-19T06:51:34.100Z,59.10
2018-04-19T06:54:01.661Z,58.30
2018-04-19T06:56:29.169Z,58.30
2018-04-19T06:58:56.700Z,58.30
2018-04-19T07:01:24.203Z,58.50
2018-04-19T07:03:51.720Z,58.70
2018-04-19T07:06:19.252Z,58.90
2018-04-19T07:08:46.775Z,58.90
2018-04-19T07:11:14.310Z,59.10
2018-04-19T07:13:42.634Z,59.90
2018-04-19T07:16:10.302Z,59.10
2018-04-19T07:18:37.818Z,58.90
2018-04-19T07:21:05.330Z,59.00
2018-04-19T07:23:32.854Z,59.10
2018-04-19T07:26:00.355Z,59.10
2018-04-19T07:28:27.904Z,58.90
2018-04-19T07:30:55.439Z,58.80
2018-04-19T07:33:22.995Z,58.70
2018-04-19T07:35:50.494Z,58.10
2018-04-19T07:38:18.037Z,58.40
2018-04-19T07:40:45.586Z,58.00
2018-04-19T07:43:13.090Z,57.70
2018-04-19T07:45:41.403Z,57.30
2018-04-19T07:48:08.902Z,57.30
2018-04-19T07:50:36.449Z,56.80
2018-04-19T07:53:03.973Z,56.40
2018-04-19T07:55:31.521Z,56.10
2018-04-19T07:57:59.080Z,55.70
2018-04-19T08:00:26.622Z,54.90
2018-04-19T08:02:54.896Z,51.30
2018-04-19T08:05:23.174Z,51.30
2018-04-19T08:07:51.459Z,51.50
2018-04-19T08:10:18.988Z,51.40
2018-04-19T08:12:46.504Z,50.20
2018-04-19T08:15:14.033Z,50.20
2018-04-19T08:17:41.557Z,49.20
2018-04-19T08:20:09.051Z,49.00
2018-04-19T08:22:36.575Z,48.40
2018-04-19T08:25:04.855Z,48.80
2018-04-19T08:27:32.371Z,48.80
2018-04-19T08:29:59.874Z,47.90
2018-04-19T08:32:27.359Z,46.00
2018-04-19T08:34:54.891Z,45.80
2018-04-19T08:37:23.190Z,44.70
2018-04-19T08:39:50.729Z,44.60
2018-04-19T08:42:18.988Z,45.60
2018-04-19T08:44:46.544Z,45.60
2018-04-19T08:47:14.052Z,45.20
2018-04-19T08:49:41.586Z,44.00
2018-04-19T08:52:09.865Z,43.60
2018-04-19T08:54:38.163Z,43.50
2018-04-19T08:57:05.687Z,43.50
2018-04-19T08:59:33.974Z,44.70
2018-04-19T09:02:01.491Z,44.60
2018-04-19T09:04:28.997Z,43.50
2018-04-19T09:06:56.498Z,43.10
2018-04-19T09:09:24.054Z,42.20
2018-04-19T09:11:51.560Z,42.70
2018-04-19T09:14:19.812Z,42.50
2018-04-19T09:16:47.320Z,42.40
2018-04-19T09:19:14.826Z,42.00
2018-04-19T09:21:42.374Z,41.90
2018-04-19T09:24:09.862Z,42.40
2018-04-19T09:26:38.169Z,42.10
2018-04-19T09:29:05.666Z,42.10
2018-04-19T09:31:33.214Z,41.80
2018-04-19T09:34:00.751Z,42.00
2018-04-19T09:36:28.267Z,41.70
2018-04-19T09:38:56.527Z,42.60
2018-04-19T09:41:24.039Z,42.50
2018-04-19T09:43:51.567Z,42.30
2018-04-19T09:46:19.151Z,41.80
2018-04-19T09:48:46.644Z,41.90
2018-04-19T09:51:14.190Z,41.00
2018-04-19T09:53:41.698Z,41.60
2018-04-19T09:56:09.223Z,40.60
2018-04-19T09:58:36.774Z,40.70
2018-04-19T10:01:09.212Z,41.00
2018-04-19T10:03:42.462Z,40.40
2018-04-19T10:06:10.739Z,42.30
2018-04-19T10:08:39.034Z,42.10
2018-04-19T10:11:06.558Z,42.10
2018-04-19T10:13:34.087Z,40.90
2018-04-19T10:16:01.681Z,41.10
2018-04-19T10:18:29.183Z,39.30
2018-04-19T10:20:56.700Z,39.70
2018-04-19T10:23:24.982Z,39.40
2018-04-19T10:25:53.246Z,38.60
2018-04-19T10:28:20.772Z,38.60
2018-04-19T10:30:48.272Z,38.60
2018-04-19T10:33:16.554Z,38.50
2018-04-19T10:35:44.822Z,38.00
2018-04-19T10:38:13.123Z,37.00
2018-04-19T10:40:40.618Z,36.90
2018-04-19T10:43:08.107Z,38.60
2018-04-19T10:45:36.386Z,38.60
2018-04-19T10:48:04.695Z,38.10
2018-04-19T10:50:32.249Z,38.10
2018-04-19T10:52:59.753Z,37.20
2018-04-19T10:55:27.250Z,36.80
2018-04-19T10:57:54.800Z,36.00
2018-04-19T11:00:22.341Z,36.90
2018-04-19T11:02:50.628Z,36.80
2018-04-19T11:05:18.912Z,35.80
2018-04-19T11:07:47.194Z,36.20
2018-04-19T11:10:14.782Z,36.20
2018-04-19T11:12:42.237Z,35.70
2018-04-19T11:15:09.730Z,34.90
2018-04-19T11:17:37.264Z,35.50
2018-04-19T11:20:04.872Z,35.20
2018-04-19T11:22:33.161Z,35.80
2018-04-19T11:25:00.675Z,35.80
2018-04-19T11:27:28.198Z,35.50
2018-04-19T11:29:55.725Z,36.00
2018-04-19T11:32:23.990Z,33.90
2018-04-19T11:34:52.288Z,34.00
2018-04-19T11:37:19.797Z,33.90
2018-04-19T11:39:48.830Z,33.70
2018-04-19T11:42:16.356Z,33.60
2018-04-19T11:44:43.898Z,34.50
2018-04-19T11:47:11.426Z,33.40
2018-04-19T11:49:38.946Z,32.90
2018-04-19T11:52:07.235Z,31.30
2018-04-19T11:54:34.756Z,31.20
2018-04-19T11:57:03.088Z,32.60
2018-04-19T11:59:30.587Z,32.60
2018-04-19T12:01:58.105Z,32.60
2018-04-19T12:04:25.618Z,32.00
2018-04-19T12:06:53.167Z,32.30
2018-04-19T12:09:20.686Z,34.20
2018-04-19T12:11:48.214Z,32.50
2018-04-19T12:14:16.500Z,30.20
2018-04-19T12:16:44.003Z,30.20
2018-04-19T12:19:11.561Z,31.00
2018-04-19T12:21:39.059Z,31.30
2018-04-19T12:24:07.364Z,30.40
2018-04-19T12:26:34.858Z,30.40
2018-04-19T12:29:02.378Z,31.00
2018-04-19T12:31:29.883Z,31.00
2018-04-19T12:33:57.416Z,30.10
2018-04-19T12:36:24.919Z,30.10
2018-04-19T12:38:53.235Z,30.00
2018-04-19T12:41:20.741Z,30.00
2018-04-19T12:43:48.269Z,30.00
2018-04-19T12:46:15.775Z,30.00
2018-04-19T12:48:43.333Z,29.50
2018-04-19T12:51:11.613Z,30.00
2018-04-19T12:53:39.162Z,29.90
2018-04-19T12:56:07.422Z,30.60
2018-04-19T12:58:35.695Z,29.50
2018-04-19T13:01:03.210Z,29.90
2018-04-19T13:03:30.707Z,30.20
2018-04-19T13:05:58.218Z,29.40
2018-04-19T13:08:25.737Z,28.80
2018-04-19T13:10:54.023Z,28.40
2018-04-19T13:13:21.570Z,28.40
2018-04-19T13:15:49.115Z,29.10
2018-04-19T13:18:16.610Z,28.90
2018-04-19T13:20:44.099Z,29.20
2018-04-19T13:23:11.619Z,28.20
2018-04-19T13:25:39.142Z,29.00
2018-04-19T13:28:06.675Z,29.50
2018-04-19T13:30:34.173Z,28.10
2018-04-19T13:33:02.496Z,28.10
2018-04-19T13:35:29.999Z,28.00
2018-04-19T13:37:58.285Z,28.40
2018-04-19T13:40:27.726Z,28.50
2018-04-19T13:42:55.293Z,28.40
2018-04-19T13:45:22.791Z,28.60
2018-04-19T13:47:51.073Z,28.80
2018-04-19T13:50:19.329Z,28.20
2018-04-19T13:52:46.854Z,28.10
2018-04-19T13:55:14.369Z,28.10
2018-04-19T13:57:42.640Z,27.90
2018-04-19T14:00:10.916Z,28.00
2018-04-19T14:02:39.185Z,27.10
2018-04-19T14:05:07.499Z,27.00
2018-04-19T14:07:35.003Z,27.00
2018-04-19T14:10:02.546Z,27.30
2018-04-19T14:12:30.062Z,27.40
2018-04-19T14:14:57.751Z,27.00
2018-04-19T14:17:25.407Z,27.20
2018-04-19T14:19:52.938Z,27.30
2018-04-19T14:22:20.449Z,27.00
2018-04-19T14:24:47.958Z,27.20
2018-04-19T14:27:15.450Z,27.00
2018-04-19T14:29:42.979Z,26.40
2018-04-19T14:32:10.506Z,26.50
2018-04-19T14:34:38.801Z,28.00
2018-04-19T14:37:06.335Z,27.90
2018-04-19T14:39:34.599Z,27.30
2018-04-19T14:42:02.147Z,27.20
2018-04-19T14:44:29.738Z,27.30
2018-04-19T14:46:58.034Z,26.70
2018-04-19T14:49:25.543Z,26.70
2018-04-19T14:51:53.074Z,26.90
2018-04-19T14:54:20.571Z,27.10
2018-04-19T14:56:48.887Z,27.10
2018-04-19T14:59:16.396Z,27.10
2018-04-19T15:01:43.949Z,27.10
2018-04-19T15:04:11.468Z,26.90
2018-04-19T15:06:39.015Z,27.00
2018-04-19T15:09:07.376Z,27.00
2018-04-19T15:11:35.663Z,27.40
2018-04-19T15:14:03.214Z,27.40
2018-04-19T15:16:30.714Z,27.40
2018-04-19T15:18:58.412Z,27.50
2018-04-19T15:21:26.689Z,27.70
2018-04-19T15:23:54.987Z,27.20
2018-04-19T15:26:22.504Z,27.20
2018-04-19T15:28:50.047Z,27.90
2018-04-19T15:31:17.579Z,27.90
2018-04-19T15:33:45.932Z,27.90
2018-04-19T15:36:13.463Z,27.80
2018-04-19T15:38:40.990Z,27.60
2018-04-19T15:41:08.525Z,27.80
2018-04-19T15:43:36.035Z,28.20
2018-04-19T15:46:03.570Z,28.20
2018-04-19T15:48:31.067Z,28.40
2018-04-19T15:50:59.371Z,28.60
2018-04-19T15:53:26.875Z,28.40
2018-04-19T15:55:54.425Z,28.60
2018-04-19T15:58:21.928Z,28.70
2018-04-19T16:00:49.460Z,28.40
2018-04-19T16:03:16.990Z,28.60
2018-04-19T16:05:44.504Z,28.60
2018-04-19T16:08:12.039Z,28.30
2018-04-19T16:10:39.542Z,28.20
2018-04-19T16:13:07.075Z,28.40
2018-04-19T16:15:34.594Z,28.30
2018-04-19T16:18:02.130Z,28.30
2018-04-19T16:20:29.679Z,27.90
2018-04-19T16:22:57.204Z,27.60
2018-04-19T16:25:25.522Z,27.40
2018-04-19T16:27:53.055Z,27.40
2018-04-19T16:30:20.618Z,27.80
2018-04-19T16:32:48.102Z,27.90
2018-04-19T16:35:15.615Z,27.70
2018-04-19T16:37:43.186Z,27.80
2018-04-19T16:40:10.755Z,27.50
2018-04-19T16:42:38.360Z,27.20
2018-04-19T16:45:05.944Z,27.30
2018-04-19T16:47:34.307Z,27.40
2018-04-19T16:50:01.846Z,27.40
2018-04-19T16:52:29.365Z,27.40
2018-04-19T16:54:56.900Z,27.70
2018-04-19T16:57:24.414Z,27.50
2018-04-19T16:59:52.227Z,27.80
2018-04-19T17:02:19.766Z,27.80
2018-04-19T17:04:48.073Z,28.30
2018-04-19T17:07:15.611Z,28.20
2018-04-19T17:09:43.154Z,28.40
2018-04-19T17:12:11.428Z,28.60
2018-04-19T17:14:39.724Z,28.60
2018-04-19T17:17:07.243Z,28.50
2018-04-19T17:19:34.770Z,28.30
2018-04-19T17:22:02.287Z,28.40
2018-04-19T17:24:30.642Z,28.50
2018-04-19T17:26:58.147Z,28.50
2018-04-19T17:29:25.727Z,28.60
2018-04-19T17:31:53.217Z,28.80
2018-04-19T17:34:20.765Z,28.80
2018-04-19T17:36:48.255Z,28.90
2018-04-19T17:39:16.578Z,29.10
2018-04-19T17:41:44.101Z,29.10
2018-04-19T17:44:11.612Z,29.20
2018-04-19T17:46:39.128Z,29.20
2018-04-19T17:49:06.631Z,29.60
2018-04-19T17:51:34.147Z,29.50
2018-04-19T17:54:01.671Z,29.80
2018-04-19T17:56:29.975Z,30.00
2018-04-19T17:58:57.481Z,30.00
2018-04-19T18:01:25.006Z,30.40
2018-04-19T18:03:52.522Z,31.20
2018-04-19T18:06:20.801Z,31.70
2018-04-19T18:08:48.367Z,31.70
2018-04-19T18:11:15.919Z,31.70
2018-04-19T18:13:43.459Z,32.60
2018-04-19T18:16:10.961Z,32.40
2018-04-19T18:18:38.492Z,32.80
2018-04-19T18:21:06.752Z,33.60
2018-04-19T18:23:34.343Z,33.50
2018-04-19T18:26:01.861Z,34.10
2018-04-19T18:28:30.154Z,34.50
2018-04-19T18:30:58.452Z,35.10
2018-04-19T18:33:25.984Z,35.00
2018-04-19T18:35:54.265Z,36.70
2018-04-19T18:38:22.568Z,36.90
2018-04-19T18:40:50.092Z,36.90
2018-04-19T18:43:18.380Z,37.30
2018-04-19T18:45:46.676Z,37.70
2018-04-19T18:48:14.194Z,37.70
2018-04-19T18:50:41.717Z,37.10
2018-04-19T18:53:09.237Z,37.00
2018-04-19T18:55:36.771Z,37.40
2018-04-19T18:58:05.071Z,37.20
2018-04-19T19:00:32.656Z,37.10
2018-04-19T19:03:00.175Z,36.80
2018-04-19T19:05:27.727Z,37.00
2018-04-19T19:07:56.008Z,36.60
2018-04-19T19:10:24.357Z,36.60
2018-04-19T19:12:51.898Z,36.50
2018-04-19T19:18:46.676Z,36.70
2018-04-19T19:21:14.207Z,36.90
2018-04-19T19:23:42.488Z,37.60
2018-04-19T19:26:10.792Z,37.60
2018-04-19T19:28:38.299Z,37.60
2018-04-19T19:31:05.822Z,38.10
2018-04-19T19:33:33.374Z,38.40
2018-04-19T19:36:00.909Z,38.30
2018-04-19T19:38:28.453Z,39.10
2018-04-19T19:40:56.759Z,39.70
2018-04-19T19:43:24.291Z,40.30
2018-04-19T19:45:52.607Z,40.50
2018-04-19T19:48:20.133Z,40.40
2018-04-19T19:50:48.440Z,40.90
2018-04-19T19:53:15.972Z,40.90
2018-04-19T19:55:43.488Z,41.20
2018-04-19T19:58:11.027Z,41.50
2018-04-19T20:00:38.582Z,41.70
2018-04-19T20:03:06.130Z,41.80
2018-04-19T20:05:33.677Z,41.90
2018-04-19T20:08:01.183Z,42.10
2018-04-19T20:10:28.805Z,42.30
2018-04-19T20:12:56.310Z,42.40
2018-04-19T20:15:24.620Z,42.90
2018-04-19T20:17:52.154Z,42.80
2018-04-19T20:20:20.447Z,43.10
2018-04-19T20:22:47.970Z,43.10
2018-04-19T20:25:15.523Z,42.90
2018-04-19T20:27:43.027Z,43.10
2018-04-19T20:30:10.531Z,43.50
2018-04-19T20:32:38.078Z,43.80
2018-04-19T20:35:05.648Z,43.80
2018-04-19T20:37:33.411Z,44.00
2018-04-19T20:40:01.116Z,44.20
2018-04-19T20:42:28.804Z,44.20
2018-04-19T20:44:56.519Z,44.20
2018-04-19T20:47:24.176Z,44.30
2018-04-19T20:49:54.807Z,44.70
2018-04-19T20:52:24.623Z,44.20
2018-04-19T20:54:53.187Z,44.40
2018-04-19T20:57:21.753Z,44.70
2018-04-19T20:59:50.171Z,44.80
2018-04-19T21:02:18.795Z,44.80
2018-04-19T21:04:46.505Z,45.90
2018-04-19T21:07:15.048Z,45.90
2018-04-19T21:09:42.558Z,45.80
2018-04-19T21:12:10.834Z,45.60
2018-04-19T21:14:39.119Z,46.00
2018-04-19T21:17:07.402Z,45.80
2018-04-19T21:19:34.927Z,45.80
2018-04-19T21:22:02.461Z,45.90
2018-04-19T21:24:29.994Z,46.70
2018-04-19T21:26:57.601Z,46.40
2018-04-19T21:29:25.219Z,46.30
2018-04-19T21:31:52.775Z,46.20
2018-04-19T21:34:20.458Z,45.90
2018-04-19T21:36:49.250Z,46.50
2018-04-19T21:39:17.047Z,46.40
2018-04-19T21:41:44.694Z,46.80
2018-04-19T21:44:12.337Z,46.60
2018-04-19T21:46:40.971Z,46.60
2018-04-19T21:49:08.566Z,46.60
2018-04-19T21:51:36.152Z,47.20
2018-04-19T21:54:03.806Z,47.10
2018-04-19T21:56:31.422Z,47.20
2018-04-19T21:58:59.073Z,47.10
2018-04-19T22:01:27.442Z,47.20
2018-04-19T22:03:55.068Z,47.20
2018-04-19T22:06:22.683Z,47.20
2018-04-19T22:08:50.285Z,47.30
2018-04-19T22:11:17.855Z,48.00
2018-04-19T22:13:45.351Z,47.50
2018-04-19T22:16:12.981Z,47.70
2018-04-19T22:18:40.521Z,47.90
2018-04-19T22:21:08.373Z,47.90
2018-04-19T22:23:35.951Z,47.50
2018-04-19T22:26:03.470Z,47.80
2018-04-19T22:28:30.977Z,48.10
2018-04-19T22:30:58.546Z,48.60
2018-04-19T22:33:26.822Z,48.90
2018-04-19T22:35:55.123Z,48.90
2018-04-19T22:38:22.669Z,48.90
2018-04-19T22:40:50.165Z,48.70
2018-04-19T22:43:17.690Z,49.20
2018-04-19T22:45:45.209Z,49.00
2018-04-19T22:48:12.717Z,48.90
2018-04-19T22:50:40.229Z,48.90
2018-04-19T22:53:07.744Z,49.50
2018-04-19T22:55:35.254Z,49.60
2018-04-19T22:58:03.519Z,49.90
2018-04-19T23:00:31.042Z,49.70
2018-04-19T23:02:58.594Z,50.40
2018-04-19T23:05:26.082Z,49.70
2018-04-19T23:07:53.679Z,49.80
2018-04-19T23:10:21.197Z,49.70
2018-04-19T23:12:48.719Z,49.60
2018-04-19T23:15:16.226Z,49.60
2018-04-19T23:17:44.539Z,49.80
2018-04-19T23:20:12.056Z,49.80
2018-04-19T23:22:39.560Z,50.00
2018-04-19T23:25:07.121Z,49.50
2018-04-19T23:27:34.605Z,50.00
2018-04-19T23:30:02.150Z,50.10
2018-04-19T23:32:29.653Z,50.30
2018-04-19T23:34:57.938Z,50.50
2018-04-19T23:37:26.218Z,50.70
2018-04-19T23:39:54.504Z,50.50
2018-04-19T23:42:22.007Z,50.50
2018-04-19T23:44:49.549Z,50.40
2018-04-19T23:47:17.070Z,50.40
2018-04-19T23:49:44.590Z,50.20
2018-04-19T23:52:12.084Z,50.40
2018-04-19T23:54:39.602Z,50.50
2018-04-19T23:57:07.117Z,50.50
2018-04-19T23:59:34.654Z,50.50
